Flight Track Log - Related Links

Times and Time Zones

All times are in EDT time to prevent confusion due to time zone crossing. See the N960DL flight status page for this flight to view local times or setup timezone preferences in your user account.

Time Position Orientation Groundspeed Altitude Reporting Facility
EDT Latitude Longitude Course Direction KTS MPH feet Rate Location/Type
Wed 11:41:03 AM 43.5917 -70.4333 218° Southwest 274 315 3,700  Level Boston Center
Wed 11:42:00 AM 43.4821 -70.2353 227° Southwest  Level FlightAware Approximate
Wed 11:42:03 AM 43.5256 -70.4758 205° Southwest 291 335 6,700  Level Boston Center
Wed 11:43:00 AM 43.4044 -70.3672 226° Southwest  Level FlightAware Approximate
Wed 11:43:03 AM 43.4453 -70.5297 206° Southwest 302 348 9,800  Level Boston Center
Wed 11:44:00 AM 43.3196 -70.4908 232° Southwest  Level FlightAware Approximate
Wed 11:44:03 AM 43.3711 -70.5836 208° Southwest 315 362 11,300  Level Boston Center
Wed 11:45:00 AM 43.2359 -70.6141 216° Southwest  Level FlightAware Approximate
Wed 11:45:03 AM 43.2700 -70.6581 208° Southwest 363 418 12,600  Level Boston Center
Wed 11:46:03 AM 43.1753 -70.7175 205° Southwest 412 474 14,700 2,200 Climbing Boston Center
Wed 11:47:03 AM 43.0575 -70.8006 207° Southwest 429 494 17,000 2,300 Climbing Boston Center
Wed 11:48:03 AM 42.9525 -70.8769 208° Southwest 439 505 19,300 2,000 Climbing Boston Center
Wed 11:49:03 AM 42.8389 -70.9564 207° Southwest 439 505 21,000 2,000 Climbing Boston Center
Wed 11:50:03 AM 42.7228 -71.0186 201° Southwest 452 520 23,300 1,700 Climbing Boston Center
Wed 11:51:03 AM 42.6006 -71.0750 199° South 457 526 24,400 1,350 Climbing Boston Center
Wed 11:52:03 AM 42.4911 -71.1647 211° Southwest 453 521 26,000 1,650 Climbing Boston Center
Wed 11:53:03 AM 42.4553 -71.3228 253° West 415 478 27,700 1,400 Climbing Boston Center
Wed 11:54:03 AM 42.4128 -71.4644 248° West 437 503 28,800 1,250 Climbing Boston Center
Wed 11:55:03 AM 42.3433 -71.6256 240° Southwest 445 512 30,200 1,550 Climbing Boston Center
Wed 11:56:03 AM 42.2858 -71.7722 242° Southwest 445 512 31,900 900 Climbing Boston Center
Wed 11:57:03 AM 42.2303 -71.9131 242° Southwest 440 506 32,000 50 Climbing Boston Center
Wed 11:58:03 AM 42.1706 -72.0564 241° Southwest 440 506 32,000  Level Boston Center
Wed 11:59:03 AM 42.1125 -72.2050 242° Southwest 440 506 32,000  Level Boston Center
Wed 12:00:03 PM 42.0544 -72.3450 241° Southwest 440 506 32,000  Level Boston Center
Wed 12:01:03 PM 41.9981 -72.4875 242° Southwest 440 506 32,000  Level Boston Center
Wed 12:02:03 PM 41.9417 -72.6272 242° Southwest 440 506 32,000  Level Boston Center
Wed 12:03:03 PM 41.8811 -72.7664 240° Southwest 440 506 32,000  Level Boston Center
Wed 12:04:03 PM 41.8097 -72.8969 234° Southwest 445 512 32,000  Level Boston Center
Wed 12:05:03 PM 41.7361 -73.0297 233° Southwest 445 512 32,000  Level Boston Center
Wed 12:06:03 PM 41.6603 -73.1625 233° Southwest 450 518 32,000  Level Boston Center
Wed 12:07:03 PM 41.5844 -73.2922 232° Southwest 450 518 32,000  Level Boston Center
Wed 12:08:55 PM 41.4503 -73.5197 232° Southwest 451 519 32,000  Level New York Center
Wed 12:09:55 PM 41.3764 -73.6522 233° Southwest 451 519 32,000  Level New York Center
Wed 12:10:52 PM 41.3003 -73.7786 227° Southwest 451 519 32,000  Level New York Center
Wed 12:11:00 PM 41.2914 -73.7755 227° Southwest  Level FlightAware Approximate
Wed 12:11:53 PM 41.2242 -73.9075 232° Southwest 451 519 32,000  Level New York Center
Wed 12:12:53 PM 41.1497 -74.0336 232° Southwest 451 519 32,000  Level New York Center
Wed 12:13:54 PM 41.0733 -74.1619 232° Southwest 451 519 32,000  Level New York Center
Wed 12:14:54 PM 40.9947 -74.2844 230° Southwest 451 519 32,000 50 Level New York Center
Wed 12:15:54 PM 40.9203 -74.4097 232° Southwest 451 519 32,100 504 Climbing New York Center
Wed 12:16:53 PM 40.8475 -74.5375 233° Southwest 446 513 33,000 706 Climbing New York Center
Wed 12:17:53 PM 40.7725 -74.6647 232° Southwest 446 513 33,500 400 Climbing New York Center
Wed 12:18:53 PM 40.6953 -74.7892 231° Southwest 446 513 33,800 248 Climbing New York Center
Wed 12:19:54 PM 40.6222 -74.9133 232° Southwest 441 507 34,000 98 Climbing New York Center
Wed 12:20:55 PM 40.5492 -75.0372 232° Southwest 441 507 34,000  Level New York Center
Wed 12:21:53 PM 40.4714 -75.1661 232° Southwest 446 513 34,000  Level New York Center
Wed 12:22:54 PM 40.3939 -75.2892 230° Southwest 446 513 34,000  Level New York Center
Wed 12:23:55 PM 40.3181 -75.4150 232° Southwest 446 513 34,000  Level New York Center
Wed 12:24:55 PM 40.2400 -75.5403 231° Southwest 446 513 34,000  Level New York Center
Wed 12:25:52 PM 40.1722 -75.6714 236° Southwest 446 513 34,000  Level New York Center
Wed 12:26:54 PM 40.1061 -75.8025 237° Southwest 440 506 34,000  Level New York Center
Wed 12:27:55 PM 40.0469 -75.9175 236° Southwest 435 501 34,000  Level New York Center
Wed 12:28:55 PM 39.9747 -76.0478 234° Southwest 435 501 34,000 -50 Level New York Center
Wed 12:29:54 PM 39.8961 -76.1689 230° Southwest 442 509 33,900  Descending New York Center
Wed 12:30:54 PM 39.8111 -76.2922 228° Southwest 457 526 34,000 49 Climbing New York Center
Wed 12:31:56 PM 39.7317 -76.4333 234° Southwest 457 526 34,000  Level Washington Center
Wed 12:32:54 PM 39.6475 -76.5428 225° Southwest 452 520 34,000  Level Washington Center
Wed 12:33:54 PM 39.5672 -76.6683 230° Southwest 452 520 34,000  Level Washington Center
Wed 12:34:55 PM 39.4869 -76.7908 230° Southwest 452 520 34,000  Level Washington Center
Wed 12:35:55 PM 39.4042 -76.9183 230° Southwest 452 520 34,000  Level Washington Center
Wed 12:36:56 PM 39.3214 -77.0431 229° Southwest 452 520 34,000  Level Washington Center
Wed 12:37:56 PM 39.2367 -77.1672 229° Southwest 457 526 34,000  Level Washington Center
Wed 12:38:56 PM 39.1536 -77.2886 229° Southwest 457 526 34,000  Level Washington Center
Wed 12:39:54 PM 39.0664 -77.4150 228° Southwest 457 526 34,000  Level Washington Center
Wed 12:40:54 PM 38.9725 -77.5514 229° Southwest 457 526 34,000 -347 Level Washington Center
Wed 12:41:55 PM 38.8892 -77.6772 230° Southwest 463 533 33,300 -1,736 Descending Washington Center
Wed 12:42:55 PM 38.8014 -77.8053 229° Southwest 475 547 30,500 -1,636 Descending Washington Center
Wed 12:43:56 PM 38.7197 -77.9278 230° Southwest 475 547 30,000 -248 Descending Washington Center
Wed 12:44:56 PM 38.6361 -78.0475 228° Southwest 465 535 30,000  Level Washington Center
Wed 12:45:54 PM 38.5564 -78.1669 230° Southwest 459 528 30,000  Level Washington Center
Wed 12:46:55 PM 38.4744 -78.2889 229° Southwest 454 522 30,000  Level Washington Center
Wed 12:47:55 PM 38.3947 -78.4050 229° Southwest 454 522 30,000  Level Washington Center
Wed 12:48:56 PM 38.2922 -78.5017 217° Southwest 454 522 30,000  Level Washington Center
Wed 12:49:54 PM 38.1900 -78.5903 214° Southwest 454 522 30,000  Level Washington Center
Wed 12:50:54 PM 38.0897 -78.6839 216° Southwest 460 529 30,000  Level Washington Center
Wed 12:51:55 PM 38.0056 -78.7936 226° Southwest 449 517 30,000  Level Washington Center
Wed 12:52:55 PM 37.9336 -78.9039 230° Southwest 444 511 30,000  Level Washington Center
Wed 12:53:56 PM 37.8511 -79.0239 229° Southwest 449 517 30,000  Level Washington Center
Wed 12:54:56 PM 37.7725 -79.1411 230° Southwest 449 517 30,000  Level Washington Center
Wed 12:55:54 PM 37.6808 -79.2706 228° Southwest 449 517 30,000  Level Washington Center
Wed 12:56:54 PM 37.6000 -79.3925 230° Southwest 454 522 30,000  Level Washington Center
Wed 12:57:55 PM 37.5192 -79.5089 229° Southwest 454 522 30,000  Level Washington Center
Wed 12:58:55 PM 37.4294 -79.6325 228° Southwest 454 522 30,000  Level Washington Center
Wed 12:59:55 PM 37.3525 -79.7461 230° Southwest 464 534 30,000  Level Washington Center
Wed 01:00:56 PM 37.2711 -79.8644 229° Southwest 464 534 30,000  Level Washington Center
Wed 01:02:44 PM 37.1283 -80.0664 228° Southwest 438 504 30,000  Level Atlanta Center
Wed 01:03:44 PM 37.0444 -80.1825 228° Southwest 438 504 30,000  Level Atlanta Center
Wed 01:04:44 PM 36.9547 -80.3114 229° Southwest 444 511 30,000  Level Atlanta Center
Wed 01:05:44 PM 36.8747 -80.4242 228° Southwest 444 511 30,000  Level Atlanta Center
Wed 01:06:44 PM 36.7947 -80.5419 230° Southwest 450 518 30,000  Level Atlanta Center
Wed 01:07:44 PM 36.7225 -80.6436 228° Southwest 443 510 30,000  Level Atlanta Center
Wed 01:08:44 PM 36.6403 -80.7608 229° Southwest 448 516 30,000  Level Atlanta Center
Wed 01:09:44 PM 36.5494 -80.8833 227° Southwest 448 516 30,000  Level Atlanta Center
Wed 01:10:44 PM 36.4669 -81.0028 229° Southwest 448 516 30,000  Level Atlanta Center
Wed 01:11:44 PM 36.3842 -81.1169 228° Southwest 448 516 30,000  Level Atlanta Center
Wed 01:12:44 PM 36.2975 -81.2358 228° Southwest 454 522 30,000  Level Atlanta Center
Wed 01:13:44 PM 36.2144 -81.3519 228° Southwest 454 522 30,000  Level Atlanta Center
Wed 01:14:44 PM 36.1294 -81.4656 227° Southwest 449 517 30,000  Level Atlanta Center
Wed 01:15:44 PM 36.0461 -81.5811 228° Southwest 454 522 30,000  Level Atlanta Center
Wed 01:16:44 PM 35.9628 -81.6964 228° Southwest 448 516 30,000  Level Atlanta Center
Wed 01:17:44 PM 35.8775 -81.8117 228° Southwest 448 516 30,000  Level Atlanta Center
Wed 01:18:44 PM 35.7939 -81.9292 229° Southwest 448 516 30,000  Level Atlanta Center
Wed 01:19:44 PM 35.7042 -82.0389 225° Southwest 453 521 30,000  Level Atlanta Center
Wed 01:20:44 PM 35.6139 -82.1433 223° Southwest 453 521 30,000  Level Atlanta Center
Wed 01:21:44 PM 35.5194 -82.2475 222° Southwest 453 521 30,000 -850 Level Atlanta Center
Wed 01:22:44 PM 35.4292 -82.3514 223° Southwest 453 521 28,300 -1,650 Descending Atlanta Center
Wed 01:23:44 PM 35.3367 -82.4578 223° Southwest 453 521 26,700 -1,350 Descending Atlanta Center
Wed 01:24:44 PM 35.2586 -82.5483 223° Southwest 448 516 25,600 -1,150 Descending Atlanta Center
Wed 01:25:44 PM 35.1719 -82.6439 222° Southwest 440 506 24,400 -800 Descending Atlanta Center
Wed 01:26:44 PM 35.0875 -82.7392 223° Southwest 429 494 24,000 -200 Descending Atlanta Center
Wed 01:27:44 PM 34.9989 -82.8319 221° Southwest 424 488 24,000  Level Atlanta Center
Wed 01:28:44 PM 34.9078 -82.9319 222° Southwest 424 488 24,000  Level Atlanta Center
Wed 01:29:44 PM 34.8211 -83.0317 223° Southwest 432 497 24,000  Level Atlanta Center
Wed 01:30:44 PM 34.7342 -83.1289 223° Southwest 432 497 24,000 -450 Level Atlanta Center
Wed 01:31:44 PM 34.6431 -83.2308 223° Southwest 438 504 23,100 -1,250 Descending Atlanta Center
Wed 01:32:44 PM 34.5539 -83.3300 223° Southwest 438 504 21,500 -1,550 Descending Atlanta Center
Wed 01:33:44 PM 34.4564 -83.4367 222° Southwest 438 504 20,000 -1,800 Descending Atlanta Center
Wed 01:34:44 PM 34.3714 -83.5331 223° Southwest 433 498 17,900 -2,350 Descending Atlanta Center
Wed 01:35:44 PM 34.2883 -83.6214 221° Southwest 419 482 15,300 -2,500 Descending Atlanta Center
Wed 01:36:44 PM 34.2069 -83.7072 221° Southwest 399 459 12,900 -1,650 Descending Atlanta Center
Wed 01:37:44 PM 34.1322 -83.7928 223° Southwest 384 442 12,000 -600 Descending Atlanta Center
Wed 01:38:44 PM 34.0633 -83.8658 221° Southwest 355 409 11,700 -857 Descending Atlanta Center
Wed 01:39:29 PM 34.0167 -83.9167 222° Southwest 298 343 10,500 -1,314 Descending Atlanta TRACON
Wed 01:40:29 PM 33.9500 -83.9500 203° Southwest 308 354 9,400 -714 Descending Atlanta TRACON
Wed 01:41:35 PM 33.8500 -83.9667 188° South 298 343 9,000 -524 Descending Atlanta TRACON
Wed 01:42:35 PM 33.7667 -83.9667 180° South 298 343 8,300 -837 Descending Atlanta TRACON
Wed 01:43:44 PM 33.6878 -83.9764 186° South 295 339 7,200 -698 Descending Atlanta Center
Wed 01:44:44 PM 33.6356 -84.0214 216° Southwest 242 278 6,800 -780 Descending Atlanta Center
Wed 01:46:41 PM 33.6333 -84.1500 269° West 202 232 4,900 -949 Descending Atlanta TRACON
Wed 01:47:41 PM 33.6333 -84.2167 270° West 195 224 4,000 -900 Descending Atlanta TRACON

Login

Don't have an account? Register now (free) for customized features, flight alerts, and more!